createdAt,value
2022-08-28T00:00:55.301Z,95077.34
2022-08-28T00:02:54.177Z,95075.81
2022-08-28T00:04:52.589Z,95071.50
2022-08-28T00:06:50.998Z,95076.19
2022-08-28T00:08:49.491Z,95075.56
2022-08-28T00:10:48.478Z,95071.44
2022-08-28T00:12:49.541Z,95084.56
2022-08-28T00:14:47.775Z,95069.78
2022-08-28T00:16:46.126Z,95075.41
2022-08-28T00:18:44.584Z,95080.06
2022-08-28T00:20:46.513Z,95085.97
2022-08-28T00:22:44.927Z,95075.75
2022-08-28T00:24:44.743Z,95079.13
2022-08-28T00:27:00.811Z,95093.38
2022-08-28T00:29:00.508Z,95083.50
2022-08-28T00:31:00.160Z,95081.00
2022-08-28T00:33:01.266Z,95081.00
2022-08-28T00:35:01.722Z,95083.88
2022-08-28T00:37:00.263Z,95083.50
2022-08-28T00:39:00.231Z,95079.50
2022-08-28T00:41:03.957Z,95079.13
2022-08-28T00:43:05.308Z,95087.06
2022-08-28T00:45:06.010Z,95091.75
2022-08-28T00:47:05.208Z,95090.75
2022-08-28T00:49:03.427Z,95085.25
2022-08-28T00:51:20.944Z,95096.44
2022-08-28T00:53:20.987Z,95088.56
2022-08-28T00:55:26.470Z,95087.59
2022-08-28T00:57:28.574Z,95085.28
2022-08-28T00:59:27.883Z,95093.00
2022-08-28T01:01:27.602Z,95080.81
2022-08-28T01:03:26.502Z,95088.72
2022-08-28T01:05:25.147Z,95092.78
2022-08-28T01:07:24.030Z,95087.00
2022-08-28T01:09:23.100Z,95089.38
2022-08-28T01:11:22.285Z,95090.59
2022-08-28T01:13:21.634Z,95086.53
2022-08-28T01:15:25.495Z,95088.63
2022-08-28T01:17:27.011Z,95087.63
2022-08-28T01:19:31.315Z,95092.03
2022-08-28T01:21:34.090Z,95089.75
2022-08-28T01:23:47.244Z,95087.19
2022-08-28T01:25:45.889Z,95089.59
2022-08-28T01:27:44.428Z,95088.09
2022-08-28T01:29:42.721Z,95088.94
2022-08-28T01:31:47.020Z,95085.25
2022-08-28T01:33:46.795Z,95092.63
2022-08-28T01:35:48.802Z,95094.63
2022-08-28T01:37:47.870Z,95093.78
2022-08-28T01:39:47.609Z,95087.47
2022-08-28T01:41:49.017Z,95095.72
2022-08-28T01:43:47.367Z,95086.16
2022-08-28T01:45:48.625Z,95088.38
2022-08-28T01:47:47.485Z,95087.75
2022-08-28T01:49:45.844Z,95096.09
2022-08-28T01:51:44.931Z,95095.09
2022-08-28T01:53:45.105Z,95093.81
2022-08-28T01:55:47.007Z,95092.97
2022-08-28T01:57:46.655Z,95097.66
2022-08-28T01:59:44.871Z,95092.72
2022-08-28T02:01:43.910Z,95096.38
2022-08-28T02:03:43.351Z,95094.22
2022-08-28T02:05:43.135Z,95099.75
2022-08-28T02:07:41.762Z,95099.09
2022-08-28T02:09:40.100Z,95100.56
2022-08-28T02:11:46.432Z,95091.91
2022-08-28T02:13:45.254Z,95092.28
2022-08-28T02:15:44.121Z,95094.94
2022-08-28T02:17:42.358Z,95095.59
2022-08-28T02:19:40.699Z,95087.25
2022-08-28T02:21:39.220Z,95089.56
2022-08-28T02:23:39.520Z,95094.59
2022-08-28T02:25:38.173Z,95097.81
2022-08-28T02:27:38.079Z,95089.72
2022-08-28T02:29:36.331Z,95098.72
2022-08-28T02:31:34.585Z,95099.53
2022-08-28T02:33:33.749Z,95096.41
2022-08-28T02:35:32.337Z,95092.25
2022-08-28T02:37:30.692Z,95094.47
2022-08-28T02:39:30.790Z,95094.94
2022-08-28T02:41:29.129Z,95097.78
2022-08-28T02:43:29.036Z,95095.47
2022-08-28T02:45:27.484Z,95106.03
2022-08-28T02:47:26.113Z,95102.44
2022-08-28T02:49:24.892Z,95101.44
2022-08-28T02:51:27.409Z,95100.44
2022-08-28T02:53:25.751Z,95110.06
2022-08-28T02:55:24.744Z,95106.84
2022-08-28T02:57:23.049Z,95101.25
2022-08-28T02:59:23.035Z,95106.91
2022-08-28T03:01:21.415Z,95101.00
2022-08-28T03:03:20.431Z,95108.72
2022-08-28T03:05:22.278Z,95110.66
2022-08-28T03:07:22.799Z,95110.56
2022-08-28T03:09:21.059Z,95113.22
2022-08-28T03:11:19.686Z,95108.59
2022-08-28T03:13:22.937Z,95110.78
2022-08-28T03:15:26.720Z,95106.75
2022-08-28T03:17:25.029Z,95115.75
2022-08-28T03:19:24.608Z,95111.16
2022-08-28T03:21:24.479Z,95116.00
2022-08-28T03:23:28.374Z,95111.69
2022-08-28T03:25:27.971Z,95118.88
2022-08-28T03:27:26.296Z,95111.38
2022-08-28T03:29:24.586Z,95112.50
2022-08-28T03:31:26.487Z,95115.50
2022-08-28T03:33:24.873Z,95114.84
2022-08-28T03:35:23.461Z,95119.78
2022-08-28T03:37:21.979Z,95120.41
2022-08-28T03:39:20.237Z,95119.94
2022-08-28T03:41:21.515Z,95122.31
2022-08-28T03:43:23.219Z,95122.00
2022-08-28T03:45:21.477Z,95128.69
2022-08-28T03:47:22.711Z,95129.50
2022-08-28T03:49:21.303Z,95121.25
2022-08-28T03:51:23.387Z,95132.94
2022-08-28T03:53:30.795Z,95133.88
2022-08-28T03:55:29.056Z,95142.47
2022-08-28T03:57:27.476Z,95145.19
2022-08-28T03:59:26.725Z,95154.22
2022-08-28T04:01:30.767Z,95149.91
2022-08-28T04:03:30.588Z,95146.25
2022-08-28T04:05:29.722Z,95148.31
2022-08-28T04:07:27.934Z,95143.94
2022-08-28T04:09:26.102Z,95156.00
2022-08-28T04:11:24.471Z,95156.00
2022-08-28T04:13:23.817Z,95153.06
2022-08-28T04:15:22.006Z,95154.19
2022-08-28T04:17:20.378Z,95157.38
2022-08-28T04:19:20.108Z,95161.63
2022-08-28T04:21:21.215Z,95168.13
2022-08-28T04:23:21.095Z,95164.84
2022-08-28T04:25:19.752Z,95160.19
2022-08-28T04:27:18.045Z,95163.72
2022-08-28T04:29:16.372Z,95163.31
2022-08-28T04:31:15.028Z,95177.38
2022-08-28T04:33:13.425Z,95173.97
2022-08-28T04:35:14.972Z,95172.28
2022-08-28T04:37:13.464Z,95168.91
2022-08-28T04:39:11.943Z,95166.81
2022-08-28T04:41:14.074Z,95167.47
2022-08-28T04:43:12.237Z,95178.22
2022-08-28T04:45:11.296Z,95170.63
2022-08-28T04:47:09.599Z,95173.59
2022-08-28T04:49:07.916Z,95168.44
2022-08-28T04:51:09.759Z,95173.19
2022-08-28T04:53:08.064Z,95180.22
2022-08-28T04:55:07.233Z,95173.25
2022-08-28T04:57:06.591Z,95182.06
2022-08-28T04:59:05.537Z,95180.00
2022-08-28T05:01:07.837Z,95179.22
2022-08-28T05:03:06.443Z,95187.94
2022-08-28T05:05:05.167Z,95177.66
2022-08-28T05:07:05.010Z,95184.38
2022-08-28T05:09:05.302Z,95175.91
2022-08-28T05:11:11.788Z,95179.59
2022-08-28T05:13:10.956Z,95173.69
2022-08-28T05:15:10.609Z,95183.16
2022-08-28T05:17:09.443Z,95191.44
2022-08-28T05:19:07.878Z,95193.69
2022-08-28T05:21:06.241Z,95194.09
2022-08-28T05:23:07.603Z,95200.06
2022-08-28T05:25:06.700Z,95191.59
2022-08-28T05:27:05.364Z,95193.91
2022-08-28T05:29:04.026Z,95196.38
2022-08-28T05:31:10.796Z,95192.44
2022-08-28T05:33:10.617Z,95199.72
2022-08-28T05:35:09.363Z,95195.09
2022-08-28T05:37:09.036Z,95198.22
2022-08-28T05:39:11.134Z,95202.56
2022-08-28T05:41:10.006Z,95211.50
2022-08-28T05:43:08.288Z,95206.94
2022-08-28T05:45:08.199Z,95201.19
2022-08-28T05:47:06.681Z,95203.69
2022-08-28T05:49:09.814Z,95202.91
2022-08-28T05:51:09.750Z,95206.44
2022-08-28T05:53:08.135Z,95208.88
2022-08-28T05:55:09.138Z,95203.31
2022-08-28T05:57:07.464Z,95218.38
2022-08-28T05:59:07.109Z,95204.50
2022-08-28T06:01:11.737Z,95205.84
2022-08-28T06:03:10.177Z,95192.78
2022-08-28T06:05:09.408Z,95197.53
2022-08-28T06:07:12.353Z,95194.06
2022-08-28T06:09:13.988Z,95199.69
2022-08-28T06:11:13.720Z,95203.59
2022-08-28T06:13:13.638Z,95198.47
2022-08-28T06:15:12.442Z,95206.63
2022-08-28T06:17:10.626Z,95195.72
2022-08-28T06:19:10.874Z,95195.44
2022-08-28T06:21:09.598Z,95200.81
2022-08-28T06:23:07.951Z,95202.22
2022-08-28T06:25:08.194Z,95203.81
2022-08-28T06:27:08.187Z,95198.25
2022-08-28T06:29:08.369Z,95202.47
2022-08-28T06:31:27.150Z,95205.66
2022-08-28T06:33:26.092Z,95204.63
2022-08-28T06:35:24.550Z,95200.97
2022-08-28T06:37:22.787Z,95221.63
2022-08-28T06:39:21.152Z,95205.59
2022-08-28T06:41:19.728Z,95206.91
2022-08-28T06:43:20.781Z,95212.34
2022-08-28T06:45:19.319Z,95212.97
2022-08-28T06:47:17.537Z,95207.59
2022-08-28T06:49:15.975Z,95204.63
2022-08-28T06:51:15.166Z,95207.97
2022-08-28T06:53:16.468Z,95205.59
2022-08-28T06:55:14.619Z,95205.66
2022-08-28T06:57:13.755Z,95199.72
2022-08-28T06:59:13.353Z,95207.03
2022-08-28T07:01:14.021Z,95205.19
2022-08-28T07:03:13.721Z,95200.22
2022-08-28T07:05:15.841Z,95203.38
2022-08-28T07:07:31.298Z,95208.56
2022-08-28T07:09:30.960Z,95198.34
2022-08-28T07:11:32.342Z,95189.38
2022-08-28T07:13:33.758Z,95192.94
2022-08-28T07:15:33.746Z,95199.22
2022-08-28T07:17:32.182Z,95201.03
2022-08-28T07:19:30.451Z,95200.97
2022-08-28T07:21:28.695Z,95191.06
2022-08-28T07:23:27.525Z,95191.72
2022-08-28T07:25:26.464Z,95199.69
2022-08-28T07:27:25.673Z,95198.19
2022-08-28T07:29:23.863Z,95194.41
2022-08-28T07:31:27.570Z,95198.13
2022-08-28T07:33:26.767Z,95200.59
2022-08-28T07:35:25.071Z,95193.06
2022-08-28T07:37:23.315Z,95191.69
2022-08-28T07:39:22.141Z,95180.22
2022-08-28T07:41:23.577Z,95184.34
2022-08-28T07:43:39.030Z,95187.69
2022-08-28T07:45:37.467Z,95181.09
2022-08-28T07:47:38.740Z,95188.28
2022-08-28T07:49:36.947Z,95185.00
2022-08-28T07:51:35.397Z,95178.41
2022-08-28T07:53:36.540Z,95181.69
2022-08-28T07:55:35.123Z,95181.50
2022-08-28T07:57:33.428Z,95183.16
2022-08-28T07:59:36.758Z,95181.03
2022-08-28T08:01:39.387Z,95175.03
2022-08-28T08:03:39.458Z,95181.00
2022-08-28T08:05:37.938Z,95180.06
2022-08-28T08:07:38.469Z,95181.72
2022-08-28T08:09:42.178Z,95180.38
2022-08-28T08:11:41.218Z,95175.53
2022-08-28T08:13:40.652Z,95177.25
2022-08-28T08:15:38.968Z,95180.88
2022-08-28T08:17:37.198Z,95182.19
2022-08-28T08:19:37.105Z,95166.94
2022-08-28T08:21:35.503Z,95175.97
2022-08-28T08:23:34.960Z,95179.03
2022-08-28T08:25:33.576Z,95175.84
2022-08-28T08:27:32.321Z,95172.75
2022-08-28T08:29:32.818Z,95166.97
2022-08-28T08:31:33.253Z,95168.06
2022-08-28T08:33:33.579Z,95173.91
2022-08-28T08:35:33.225Z,95162.34
2022-08-28T08:37:31.460Z,95160.44
2022-08-28T08:39:31.851Z,95167.81
2022-08-28T08:41:34.089Z,95163.53
2022-08-28T08:43:43.171Z,95159.47
2022-08-28T08:45:43.248Z,95161.63
2022-08-28T08:47:48.482Z,95155.38
2022-08-28T08:49:53.003Z,95163.19
2022-08-28T08:52:01.222Z,95157.50
2022-08-28T08:54:05.369Z,95155.09
2022-08-28T08:56:06.352Z,95155.53
2022-08-28T08:58:09.168Z,95158.25
2022-08-28T09:00:15.043Z,95154.00
2022-08-28T09:02:18.227Z,95153.59
2022-08-28T09:04:27.072Z,95153.50
2022-08-28T09:06:36.906Z,95155.66
2022-08-28T09:08:42.578Z,95156.44
2022-08-28T09:10:49.367Z,95161.25
2022-08-28T09:12:54.995Z,95153.28
2022-08-28T09:15:04.959Z,95154.28
2022-08-28T09:17:05.446Z,95154.06
2022-08-28T09:19:04.307Z,95150.78
2022-08-28T09:21:02.830Z,95157.84
2022-08-28T09:23:02.129Z,95151.50
2022-08-28T09:25:15.169Z,95142.53
2022-08-28T09:27:22.987Z,95150.16
2022-08-28T09:29:27.890Z,95138.31
2022-08-28T09:31:32.781Z,95139.72
2022-08-28T09:33:40.160Z,95141.66
2022-08-28T09:35:40.031Z,95139.28
2022-08-28T09:37:41.630Z,95145.13
2022-08-28T09:39:40.685Z,95147.78
2022-08-28T09:42:10.415Z,95140.63
2022-08-28T09:44:08.703Z,95131.41
2022-08-28T09:46:22.311Z,95132.75
2022-08-28T09:48:23.739Z,95133.53
2022-08-28T09:50:31.546Z,95131.81
2022-08-28T09:52:29.782Z,95120.41
2022-08-28T09:54:33.310Z,95117.31
2022-08-28T09:56:33.485Z,95117.69
2022-08-28T09:58:36.628Z,95114.78
2022-08-28T10:00:40.764Z,95126.91
2022-08-28T10:02:46.806Z,95122.75
2022-08-28T10:04:59.386Z,95110.81
2022-08-28T10:07:02.377Z,95110.09
2022-08-28T10:09:13.210Z,95110.09
2022-08-28T10:11:20.810Z,95105.50
2022-08-28T10:13:24.522Z,95105.78
2022-08-28T10:15:30.172Z,95105.22
2022-08-28T10:17:41.285Z,95102.28
2022-08-28T10:19:48.128Z,95102.00
2022-08-28T10:21:52.639Z,95095.97
2022-08-28T10:24:24.755Z,95095.91
2022-08-28T10:26:39.661Z,95096.13
2022-08-28T10:28:52.416Z,95100.00
2022-08-28T10:31:02.859Z,95095.03
2022-08-28T10:33:27.526Z,95089.16
2022-08-28T10:35:34.073Z,95092.22
2022-08-28T10:37:44.889Z,95083.47
2022-08-28T10:39:50.637Z,95078.50
2022-08-28T10:41:52.819Z,95090.28
2022-08-28T10:43:53.274Z,95088.63
2022-08-28T10:45:54.929Z,95090.03
2022-08-28T10:47:57.694Z,95091.69
2022-08-28T10:50:02.017Z,95090.97
2022-08-28T10:52:06.498Z,95086.94
2022-08-28T10:54:09.097Z,95085.47
2022-08-28T10:56:14.312Z,95081.94
2022-08-28T10:58:23.874Z,95077.16
2022-08-28T11:00:26.476Z,95078.28
2022-08-28T11:02:28.083Z,95078.03
2022-08-28T11:04:29.351Z,95077.75
2022-08-28T11:06:33.511Z,95081.56
2022-08-28T11:08:34.858Z,95070.63
2022-08-28T11:10:46.560Z,95070.94
2022-08-28T11:12:45.164Z,95064.16
2022-08-28T11:14:47.787Z,95064.91
2022-08-28T11:16:50.143Z,95067.63
2022-08-28T11:19:29.751Z,95067.69
2022-08-28T11:21:33.429Z,95064.44
2022-08-28T11:23:39.624Z,95058.69
2022-08-28T11:25:49.024Z,95066.34
2022-08-28T11:28:14.575Z,95056.81
2022-08-28T11:30:33.588Z,95063.88
2022-08-28T11:32:56.051Z,95056.81
2022-08-28T11:34:57.780Z,95054.06
2022-08-28T11:37:04.110Z,95048.34
2022-08-28T11:39:06.403Z,95051.63
2022-08-28T11:41:15.427Z,95046.16
2022-08-28T11:43:34.852Z,95046.69
2022-08-28T11:46:05.640Z,95052.38
2022-08-28T11:48:05.567Z,95050.78
2022-08-28T11:50:15.734Z,95047.78
2022-08-28T11:52:40.464Z,95039.88
2022-08-28T11:54:52.660Z,95041.28
2022-08-28T11:57:04.710Z,95037.97
2022-08-28T11:59:18.227Z,95032.28
2022-08-28T12:01:28.551Z,95039.38
2022-08-28T12:03:32.168Z,95036.34
2022-08-28T12:05:45.965Z,95036.09
2022-08-28T12:07:47.684Z,95033.34
2022-08-28T12:09:47.406Z,95033.09
2022-08-28T12:11:57.842Z,95034.16
2022-08-28T12:13:56.564Z,95027.13
2022-08-28T12:16:05.876Z,95027.94
2022-08-28T12:18:06.291Z,95030.41
2022-08-28T12:20:09.088Z,95024.13
2022-08-28T12:22:11.161Z,95025.75
2022-08-28T12:24:22.940Z,95024.91
2022-08-28T12:26:25.736Z,95025.75
2022-08-28T12:28:28.686Z,95021.94
2022-08-28T12:30:34.564Z,95012.69
2022-08-28T12:32:39.874Z,95012.41
2022-08-28T12:34:45.829Z,95012.97
2022-08-28T12:36:44.891Z,95012.13
2022-08-28T12:38:52.780Z,95007.81
2022-08-28T12:40:53.622Z,95011.88
2022-08-28T12:42:55.675Z,95004.00
2022-08-28T12:44:54.341Z,95015.41
2022-08-28T12:46:53.976Z,95012.72
2022-08-28T12:48:54.962Z,95014.81
2022-08-28T12:50:59.779Z,95008.34
2022-08-28T12:53:03.788Z,95010.78
2022-08-28T12:55:01.951Z,95003.19
2022-08-28T12:57:03.596Z,94997.22
2022-08-28T12:59:27.278Z,94998.81
2022-08-28T13:01:28.954Z,94999.34
2022-08-28T13:03:27.630Z,94995.56
2022-08-28T13:05:32.483Z,95002.34
2022-08-28T13:07:33.761Z,94998.81
2022-08-28T13:09:32.621Z,94995.28
2022-08-28T13:11:34.729Z,94993.66
2022-08-28T13:13:38.177Z,94998.84
2022-08-28T13:15:47.818Z,94999.63
2022-08-28T13:17:49.401Z,95004.53
2022-08-28T13:20:03.824Z,95001.56
2022-08-28T13:22:04.066Z,94991.19
2022-08-28T13:24:21.663Z,94996.59
2022-08-28T13:26:26.195Z,94999.56
2022-08-28T13:28:25.065Z,94996.00
2022-08-28T13:30:27.590Z,94998.19
2022-08-28T13:32:27.276Z,94996.56
2022-08-28T13:34:27.634Z,94992.50
2022-08-28T13:36:27.570Z,94997.13
2022-08-28T13:38:26.766Z,94993.34
2022-08-28T13:42:46.653Z,94983.00
2022-08-28T13:44:49.019Z,94981.13
2022-08-28T13:46:48.723Z,94991.75
2022-08-28T13:48:46.907Z,94985.50
2022-08-28T13:50:47.771Z,94983.00
2022-08-28T13:52:46.867Z,94980.56
2022-08-28T13:54:45.472Z,94979.47
2022-08-28T13:56:44.079Z,94976.19
2022-08-28T13:58:42.383Z,94975.63
2022-08-28T14:00:44.487Z,94975.91
2022-08-28T14:03:01.257Z,94972.41
2022-08-28T14:04:59.716Z,94966.69
2022-08-28T14:06:58.156Z,94961.50
2022-08-28T14:08:56.260Z,94967.19
2022-08-28T14:10:54.518Z,94973.72
2022-08-28T14:12:52.920Z,94969.38
2022-08-28T14:14:52.676Z,94974.28
2022-08-28T14:16:53.543Z,94976.44
2022-08-28T14:18:53.922Z,94972.91
2022-08-28T14:20:52.308Z,94973.16
2022-08-28T14:22:50.525Z,94972.34
2022-08-28T14:24:48.963Z,94967.19
2022-08-28T14:26:47.671Z,94966.91
2022-08-28T14:28:46.435Z,94973.66
2022-08-28T14:30:45.493Z,94969.56
2022-08-28T14:32:44.667Z,94963.56
2022-08-28T14:34:44.655Z,94964.91
2022-08-28T14:36:43.519Z,94958.94
2022-08-28T14:38:41.883Z,94961.66
2022-08-28T14:40:41.829Z,94960.84
2022-08-28T14:42:41.865Z,94959.22
2022-08-28T14:44:40.183Z,94959.50
2022-08-28T14:46:39.124Z,94965.22
2022-08-28T14:48:37.352Z,94960.28
2022-08-28T14:50:41.723Z,94961.63
2022-08-28T14:52:40.721Z,94960.28
2022-08-28T14:54:40.606Z,94955.09
2022-08-28T14:56:39.986Z,94951.53
2022-08-28T14:58:38.794Z,94953.09
2022-08-28T15:00:40.773Z,94951.69
2022-08-28T15:02:39.034Z,94942.72
2022-08-28T15:04:38.125Z,94946.25
2022-08-28T15:06:38.502Z,94943.19
2022-08-28T15:08:38.002Z,94946.13
2022-08-28T15:10:39.175Z,94952.38
2022-08-28T15:12:37.322Z,94952.88
2022-08-28T15:14:37.248Z,94943.41
2022-08-28T15:16:39.236Z,94942.09
2022-08-28T15:18:37.771Z,94947.75
2022-08-28T15:20:39.828Z,94953.16
2022-08-28T15:22:39.546Z,94954.78
2022-08-28T15:24:37.910Z,94961.81
2022-08-28T15:26:36.712Z,94957.38
2022-08-28T15:28:35.031Z,94957.00
2022-08-28T15:30:34.119Z,94959.44
2022-08-28T15:32:32.318Z,94958.53
2022-08-28T15:34:30.784Z,94965.56
2022-08-28T15:36:29.072Z,94970.97
2022-08-28T15:38:48.869Z,94979.09
2022-08-28T15:41:04.299Z,94973.31
2022-08-28T15:43:02.706Z,94980.81
2022-08-28T15:45:01.086Z,94973.41
2022-08-28T15:47:01.514Z,94976.66
2022-08-28T15:48:59.891Z,94976.59
2022-08-28T15:50:59.451Z,94980.25
2022-08-28T15:52:58.339Z,94986.16
2022-08-28T15:54:59.063Z,94987.44
2022-08-28T15:56:57.404Z,94988.44
2022-08-28T15:58:55.656Z,94995.66
2022-08-28T16:00:54.212Z,94999.66
2022-08-28T16:02:55.861Z,94994.69
2022-08-28T16:04:54.840Z,94990.78
2022-08-28T16:07:00.350Z,94985.78
2022-08-28T16:08:59.319Z,94985.72
2022-08-28T16:10:58.995Z,94980.50
2022-08-28T16:12:57.803Z,94984.69
2022-08-28T16:14:56.093Z,94994.16
2022-08-28T16:16:54.422Z,94996.28
2022-08-28T16:18:52.907Z,95000.22
2022-08-28T16:20:51.177Z,94997.47
2022-08-28T16:22:49.490Z,94999.53
2022-08-28T16:24:48.328Z,94993.59
2022-08-28T16:26:47.982Z,94992.97
2022-08-28T16:28:46.936Z,94997.22
2022-08-28T16:30:45.503Z,94995.25
2022-08-28T16:32:46.876Z,94997.88
2022-08-28T16:34:46.007Z,94995.59
2022-08-28T16:36:47.751Z,94994.94
2022-08-28T16:38:49.021Z,95003.78
2022-08-28T16:40:53.616Z,94996.41
2022-08-28T16:42:55.737Z,94996.06
2022-08-28T16:44:57.580Z,94999.50
2022-08-28T16:46:56.895Z,94998.00
2022-08-28T16:48:55.391Z,94997.34
2022-08-28T16:50:54.008Z,95004.03
2022-08-28T16:52:52.374Z,95011.81
2022-08-28T16:54:51.859Z,95005.31
2022-08-28T16:56:50.311Z,95011.72
2022-08-28T16:58:50.077Z,95011.38
2022-08-28T17:00:52.585Z,95013.16
2022-08-28T17:02:53.257Z,95016.00
2022-08-28T17:04:51.714Z,95019.69
2022-08-28T17:06:50.216Z,95031.19
2022-08-28T17:08:49.012Z,95019.13
2022-08-28T17:10:48.763Z,95022.91
2022-08-28T17:12:47.254Z,95018.81
2022-08-28T17:14:46.926Z,95031.09
2022-08-28T17:16:45.362Z,95028.19
2022-08-28T17:18:47.972Z,95024.56
2022-08-28T17:21:07.823Z,95030.94
2022-08-28T17:23:06.879Z,95038.69
2022-08-28T17:25:09.476Z,95038.09
2022-08-28T17:27:08.478Z,95039.38
2022-08-28T17:29:07.267Z,95049.47
2022-08-28T17:31:07.730Z,95058.28
2022-08-28T17:33:07.315Z,95056.03
2022-08-28T17:35:07.650Z,95061.69
2022-08-28T17:37:06.249Z,95066.00
2022-08-28T17:39:08.615Z,95061.44
2022-08-28T17:41:07.189Z,95066.16
2022-08-28T17:43:05.486Z,95070.13
2022-08-28T17:45:06.640Z,95071.66
2022-08-28T17:47:06.617Z,95064.25
2022-08-28T17:49:06.066Z,95065.31
2022-08-28T17:51:05.614Z,95069.53
2022-08-28T17:53:04.029Z,95072.69
2022-08-28T17:55:03.003Z,95065.41
2022-08-28T17:57:01.408Z,95067.13
2022-08-28T17:58:59.594Z,95067.50
2022-08-28T18:00:58.382Z,95067.03
2022-08-28T18:02:58.150Z,95066.88
2022-08-28T18:04:56.489Z,95078.72
2022-08-28T18:06:55.155Z,95081.66
2022-08-28T18:08:53.434Z,95089.97
2022-08-28T18:10:51.952Z,95090.56
2022-08-28T18:12:50.326Z,95092.75
2022-08-28T18:14:48.706Z,95093.53
2022-08-28T18:16:47.406Z,95094.25
2022-08-28T18:18:47.190Z,95085.69
2022-08-28T18:20:45.619Z,95084.66
2022-08-28T18:22:43.737Z,95092.16
2022-08-28T18:24:43.876Z,95096.72
2022-08-28T18:26:42.926Z,95098.00
2022-08-28T18:28:41.242Z,95097.66
2022-08-28T18:30:40.527Z,95103.56
2022-08-28T18:32:38.759Z,95106.94
2022-08-28T18:34:38.508Z,95105.53
2022-08-28T18:36:36.836Z,95095.22
2022-08-28T18:38:35.737Z,95111.81
2022-08-28T18:40:35.103Z,95108.22
2022-08-28T18:42:33.554Z,95105.22
2022-08-28T18:44:32.453Z,95110.31
2022-08-28T18:46:31.257Z,95121.16
2022-08-28T18:48:31.722Z,95120.88
2022-08-28T18:50:32.592Z,95122.81
2022-08-28T18:52:30.850Z,95125.16
2022-08-28T18:54:31.244Z,95126.66
2022-08-28T18:56:32.541Z,95137.66
2022-08-28T18:58:32.214Z,95123.00
2022-08-28T19:00:31.503Z,95141.19
2022-08-28T19:02:29.780Z,95135.25
2022-08-28T19:04:28.085Z,95138.25
2022-08-28T19:06:27.860Z,95140.63
2022-08-28T19:08:27.129Z,95147.19
2022-08-28T19:10:33.606Z,95142.63
2022-08-28T19:12:33.428Z,95147.50
2022-08-28T19:14:32.609Z,95159.88
2022-08-28T19:16:31.616Z,95149.84
2022-08-28T19:18:29.999Z,95156.66
2022-08-28T19:20:29.121Z,95156.47
2022-08-28T19:22:29.986Z,95154.91
2022-08-28T19:24:31.161Z,95156.81
2022-08-28T19:26:30.026Z,95162.03
2022-08-28T19:28:28.601Z,95158.16
2022-08-28T19:30:28.250Z,95159.78
2022-08-28T19:32:27.271Z,95161.91
2022-08-28T19:34:25.943Z,95172.84
2022-08-28T19:36:27.173Z,95165.00
2022-08-28T19:38:26.842Z,95170.59
2022-08-28T19:40:29.210Z,95173.28
2022-08-28T19:42:28.845Z,95176.38
2022-08-28T19:44:27.241Z,95175.19
2022-08-28T19:46:25.465Z,95182.03
2022-08-28T19:48:23.811Z,95177.91
2022-08-28T19:50:22.203Z,95177.31
2022-08-28T19:52:20.354Z,95189.94
2022-08-28T19:54:20.111Z,95190.94
2022-08-28T19:56:22.287Z,95186.47
2022-08-28T19:58:22.357Z,95187.94
2022-08-28T20:00:23.137Z,95190.44
2022-08-28T20:02:22.852Z,95190.91
2022-08-28T20:04:21.130Z,95191.94
2022-08-28T20:06:19.432Z,95192.34
2022-08-28T20:08:18.173Z,95181.22
2022-08-28T20:10:18.518Z,95193.63
2022-08-28T20:12:17.079Z,95193.63
2022-08-28T20:14:16.661Z,95200.22
2022-08-28T20:18:13.123Z,95199.47
2022-08-28T20:20:13.348Z,95207.31
2022-08-28T20:22:11.682Z,95204.00
2022-08-28T20:24:12.416Z,95212.69
2022-08-28T20:26:12.929Z,95211.88
2022-08-28T20:28:11.293Z,95211.88
2022-08-28T20:30:10.642Z,95216.84
2022-08-28T20:32:09.846Z,95218.88
2022-08-28T20:34:09.718Z,95211.66
2022-08-28T20:36:16.095Z,95219.31
2022-08-28T20:38:19.424Z,95212.72
2022-08-28T20:40:21.822Z,95216.03
2022-08-28T20:42:21.595Z,95214.38
2022-08-28T20:44:21.968Z,95211.50
2022-08-28T20:46:20.799Z,95218.09
2022-08-28T20:48:19.654Z,95214.81
2022-08-28T20:50:17.877Z,95218.97
2022-08-28T20:52:16.177Z,95209.69
2022-08-28T20:54:14.531Z,95211.53
2022-08-28T20:56:12.844Z,95217.94
2022-08-28T20:58:14.370Z,95215.25
2022-08-28T21:00:14.071Z,95210.75
2022-08-28T21:02:15.258Z,95205.78
2022-08-28T21:04:13.411Z,95204.75
2022-08-28T21:06:11.768Z,95206.63
2022-08-28T21:08:12.285Z,95205.16
2022-08-28T21:10:11.487Z,95209.47
2022-08-28T21:12:10.181Z,95196.72
2022-08-28T21:14:09.923Z,95197.94
2022-08-28T21:16:09.211Z,95200.03
2022-08-28T21:18:08.338Z,95207.44
2022-08-28T21:20:11.388Z,95204.94
2022-08-28T21:22:09.728Z,95207.84
2022-08-28T21:24:09.948Z,95215.25
2022-08-28T21:26:08.607Z,95210.72
2022-08-28T21:28:07.111Z,95209.91
2022-08-28T21:30:09.220Z,95211.16
2022-08-28T21:32:07.498Z,95210.53
2022-08-28T21:34:06.699Z,95211.16
2022-08-28T21:36:09.178Z,95212.38
2022-08-28T21:38:07.723Z,95205.59
2022-08-28T21:40:09.353Z,95211.75
2022-08-28T21:42:08.139Z,95207.00
2022-08-28T21:44:06.764Z,95203.09
2022-08-28T21:46:07.808Z,95211.53
2022-08-28T21:48:06.325Z,95202.88
2022-08-28T21:50:05.211Z,95211.34
2022-08-28T21:52:04.223Z,95211.94
2022-08-28T21:54:02.828Z,95213.63
2022-08-28T21:56:01.175Z,95217.28
2022-08-28T21:57:59.473Z,95221.22
2022-08-28T21:59:58.596Z,95217.72
2022-08-28T22:02:01.207Z,95217.47
2022-08-28T22:03:59.897Z,95210.69
2022-08-28T22:05:58.889Z,95208.22
2022-08-28T22:07:57.175Z,95214.41
2022-08-28T22:09:55.488Z,95216.06
2022-08-28T22:11:54.121Z,95210.69
2022-08-28T22:13:52.463Z,95219.97
2022-08-28T22:15:50.817Z,95217.69
2022-08-28T22:17:51.754Z,95224.28
2022-08-28T22:19:50.011Z,95224.47
2022-08-28T22:22:05.822Z,95215.56
2022-08-28T22:24:04.904Z,95222.00
2022-08-28T22:26:04.722Z,95214.16
2022-08-28T22:28:03.112Z,95220.72
2022-08-28T22:30:01.602Z,95225.22
2022-08-28T22:32:00.003Z,95217.59
2022-08-28T22:34:00.548Z,95219.69
2022-08-28T22:35:59.207Z,95218.19
2022-08-28T22:38:00.583Z,95227.88
2022-08-28T22:39:59.293Z,95231.13
2022-08-28T22:41:57.668Z,95231.34
2022-08-28T22:43:55.933Z,95231.13
2022-08-28T22:45:54.501Z,95233.78
2022-08-28T22:47:54.485Z,95234.38
2022-08-28T22:49:56.262Z,95238.50
2022-08-28T22:51:54.545Z,95235.22
2022-08-28T22:53:53.041Z,95231.72
2022-08-28T22:55:51.539Z,95228.44
2022-08-28T22:57:49.812Z,95226.97
2022-08-28T22:59:48.096Z,95231.47
2022-08-28T23:01:46.554Z,95234.34
2022-08-28T23:03:45.419Z,95229.00
2022-08-28T23:05:45.101Z,95232.28
2022-08-28T23:07:44.214Z,95230.63
2022-08-28T23:09:42.524Z,95243.00
2022-08-28T23:11:40.843Z,95233.09
2022-08-28T23:13:39.824Z,95234.69
2022-08-28T23:15:38.345Z,95233.44
2022-08-28T23:17:37.140Z,95228.28
2022-08-28T23:19:35.573Z,95233.03
2022-08-28T23:21:35.105Z,95227.47
2022-08-28T23:23:42.423Z,95227.47
2022-08-28T23:25:41.185Z,95229.91
2022-08-28T23:27:39.494Z,95230.09
2022-08-28T23:29:37.754Z,95231.38
2022-08-28T23:31:36.315Z,95234.63
2022-08-28T23:33:34.897Z,95241.66
2022-08-28T23:35:33.437Z,95237.91
2022-08-28T23:37:33.797Z,95238.28
2022-08-28T23:39:32.116Z,95240.34
2022-08-28T23:41:31.969Z,95238.50
2022-08-28T23:43:30.377Z,95244.22
2022-08-28T23:45:28.688Z,95243.56
2022-08-28T23:47:27.923Z,95236.78